• Join FlightAware (Why Join?)
  • Login
  • US Flag 
09:04AM EDT


 

Airport Tracker/Info


-or-


 

Live Flight TrackerFlight Track Log ✈ QXE2633 ✈ 26-Jan-2014 ✈ KPDX - KSMF

Flight Track Log - Related Links

Times and Time Zones

All times are in EST time to prevent confusion due to time zone crossing. See the QXE2633 flight status page for this flight to view local times or setup timezone preferences in your user account.

Time Position Orientation Groundspeed Altitude Reporting Facility
EST Latitude Longitude Course Direction KTS MPH feet Rate Location/Type
06:42PM 45.0779 -122.4153 170° South  Level FlightAware Approximate
06:43PM 44.9924 -122.3951 172° South  Level FlightAware Approximate
06:44PM 44.9066 -122.3780 172° South  Level FlightAware Approximate
06:45PM 44.8211 -122.3580 168° South  Level FlightAware Approximate
06:46PM 44.7363 -122.3325 168° South  Level FlightAware Approximate
06:47PM 44.6513 -122.3086 170° South  Level FlightAware Approximate
06:48PM 44.5659 -122.2873 170° South  Level FlightAware Approximate
06:49PM 44.4806 -122.2661 172° South  Level FlightAware Approximate
06:50PM 44.3948 -122.2489 172° South  Level FlightAware Approximate
06:51PM 44.3092 -122.2303 164° South  Level FlightAware Approximate
06:52PM 44.2256 -122.1982 170° South  Level FlightAware Approximate
06:53PM 44.1401 -122.1781 170° South  Level FlightAware Approximate
06:54PM 44.0547 -122.1581 170° South  Level FlightAware Approximate
06:55PM 43.9692 -122.1381 170° South  Level FlightAware Approximate
06:56PM 43.8837 -122.1182 170° South  Level FlightAware Approximate
06:57PM 43.7982 -122.0984 170° South  Level FlightAware Approximate
06:58PM 43.7127 -122.0785 170° South  Level FlightAware Approximate
06:59PM 43.6272 -122.0587 170° South  Level FlightAware Approximate
07:00PM 43.5417 -122.0390 170° South  Level FlightAware Approximate
07:01PM 43.4562 -122.0193 171° South  Level FlightAware Approximate
07:02PM 43.3706 -121.9996 171° South  Level FlightAware Approximate
07:03PM 43.2851 -121.9800 171° South  Level FlightAware Approximate
07:04PM 43.1996 -121.9605 171° South  Level FlightAware Approximate
07:05PM 43.1141 -121.9410 171° South  Level FlightAware Approximate
07:06PM 43.0286 -121.9216 171° South  Level FlightAware Approximate
07:07PM 42.9430 -121.9022 171° South  Level FlightAware Approximate
07:08PM 42.8576 -121.8821 170° South  Level FlightAware Approximate
07:09PM 42.7722 -121.8619 170° South  Level FlightAware Approximate
07:10PM 42.6868 -121.8418 170° South  Level FlightAware Approximate
07:11PM 42.6078 -121.8232 170° South  Level FlightAware Approximate
07:12PM 42.5289 -121.8048 170° South  Level FlightAware Approximate
07:13PM 42.4500 -121.7863 170° South  Level FlightAware Approximate
07:14PM 42.3710 -121.7679 170° South  Level FlightAware Approximate
07:15PM 42.2921 -121.7496 170° South  Level FlightAware Approximate
07:16PM 42.2132 -121.7313 170° South  Level FlightAware Approximate
07:17PM 42.1340 -121.7167 180° South  Level FlightAware Approximate
07:18PM 42.0539 -121.7167 180° South  Level FlightAware Approximate
07:19PM 41.9738 -121.7167 180° South  Level FlightAware Approximate
07:20PM 41.8937 -121.7167 180° South  Level FlightAware Approximate
07:21PM 41.8136 -121.7167 180° South  Level FlightAware Approximate
07:22PM 41.7335 -121.7167 180° South  Level FlightAware Approximate
07:23PM 41.6534 -121.7167 180° South  Level FlightAware Approximate
07:24PM 41.5733 -121.7167 180° South  Level FlightAware Approximate
07:25PM 41.4932 -121.7167 180° South  Level FlightAware Approximate
07:26PM 41.4131 -121.7167 180° South  Level FlightAware Approximate
07:27PM 41.3330 -121.7167 180° South  Level FlightAware Approximate
07:28PM 41.2529 -121.7167 180° South  Level FlightAware Approximate
07:29PM 41.1728 -121.7167 180° South  Level FlightAware Approximate
07:30PM 41.0927 -121.7167 180° South  Level FlightAware Approximate
07:31PM 41.0087 -121.7114 177° South  Level FlightAware Approximate
07:32PM 40.9247 -121.7062 177° South  Level FlightAware Approximate
07:33PM 40.8407 -121.7010 177° South  Level FlightAware Approximate
07:34PM 40.7567 -121.6958 177° South  Level FlightAware Approximate
07:35PM 40.6727 -121.6906 177° South  Level FlightAware Approximate
07:36PM 40.5887 -121.6854 177° South  Level FlightAware Approximate
07:37PM 40.5050 -121.6774 176° South  Level FlightAware Approximate
07:38PM 40.4210 -121.6672 175° South  Level FlightAware Approximate
07:39PM 40.3363 -121.6618 177° South  Level FlightAware Approximate
07:40PM 40.2517 -121.6567 177° South  Level FlightAware Approximate
07:41PM 40.1671 -121.6516 177° South  Level FlightAware Approximate
07:42PM 40.0825 -121.6465 177° South  Level FlightAware Approximate
07:43PM 39.9979 -121.6414 177° South  Level FlightAware Approximate
07:44PM 39.9132 -121.6363 177° South  Level FlightAware Approximate
07:45PM 39.8286 -121.6313 177° South  Level FlightAware Approximate
07:46PM 39.7436 -121.6262 177° South  Level FlightAware Approximate
07:47PM 39.6586 -121.6211 177° South  Level FlightAware Approximate
07:48PM 39.5736 -121.6167 180° South  Level FlightAware Approximate
07:49PM 39.4885 -121.6167 180° South  Level FlightAware Approximate
07:50PM 39.4037 -121.6087 176° South  Level FlightAware Approximate
07:51PM 39.3188 -121.6002 176° South  Level FlightAware Approximate
07:52PM 39.2338 -121.6000 180° South  Level FlightAware Approximate
07:53PM 39.1487 -121.6000 180° South  Level FlightAware Approximate
07:54PM 39.0638 -121.5948 174° South  Level FlightAware Approximate
07:55PM 38.9792 -121.5833 180° South  Level FlightAware Approximate
07:56PM 38.8941 -121.5833 180° South  Level FlightAware Approximate
07:57PM 38.8090 -121.5833 180° South  Level FlightAware Approximate
07:58PM 38.7239 -121.5833 180° South  Level FlightAware Approximate
07:59PM 38.6954 -121.5908 180° South  Level Estimated
08:00PM 38.6954 -121.5908 180° South  Level Estimated
08:01PM 38.6954 -121.5908 180° South  Level Estimated
08:02PM 38.6954 -121.5908 180° South  Level Estimated
08:03PM 38.6954 -121.5908 198° South  Level Estimated
08:04PM 38.6954 -121.5908 21° North  Level Estimated
08:05PM 38.6954 -121.5908 154° Southeast  Level Estimated
08:06PM 38.6954 -121.5908 270° West  Level Estimated
08:07PM 38.6954 -121.5908 270° West  Level Estimated
08:08PM 38.6954 -121.5908 270° West  Level Estimated
08:09PM 38.6954 -121.5908 270° West  Level Estimated
08:10PM 38.6954 -121.5908 270° West  Level Estimated
08:11PM 38.6954 -121.5908 270° West  Level Estimated
08:12PM 38.6954 -121.5908 270° West  Level Estimated
08:13PM 38.6954 -121.5908 270° West  Level Estimated
08:14PM 38.6954 -121.5908 270° West  Level Estimated
08:15PM 38.6954 -121.5908 270° West  Level Estimated
08:16PM 38.6954 -121.5908 270° West  Level Estimated